Quick Links (Output Below):   Max & Min Temps   /   Climate Reports   /   Zone Forecasts
River Forecasts   /   Forestry Forecasts   /   Aviation Forecasts   /   Radars   /   Features

Terminal Aerodrome Forecast (Harrison)

Pick a Site:
Arkadelphia | El Dorado | Fayetteville | Fort Smith | Harrison | Highfill | Hot Springs | Jonesboro
Little Rock | Monticello | Mountain Home | Pine Bluff | Texarkana
 Forecast 

KHRO 291120Z 2912/3012 VRB04KT P6SM VCSH BKN040 BKN100
     FM291500 VRB06KT P6SM VCTS SCT040CB BKN080
     FM300100 VRB03KT P6SM SCT040 SCT100
     FM300800 VRB04KT P6SM VCTS SCT025CB OVC050 PROB30 3008/3012 4SM
      TSRA BKN025CB=


 Latest METARs (Observations) 
How to Decode METARs
14Z KHRO 291353Z AUTO 29003KT 10SM FEW110 26/23 A3002 RMK AO2 SLP147
         T02610228
         
13Z KHRO 291253Z AUTO 00000KT 10SM CLR 24/23 A3001 RMK AO2 SLP145
         T02390228
         
12Z KHRO 291153Z AUTO 10SM BKN120 22/21 A2999 RMK AO2 SLP140 T02220211
         10233 20211 53012
         
11Z KHRO 291053Z AUTO 15003KT 8SM CLR 21/21 A2995 RMK AO2 SLP125
         T02110206
         
10Z KHRO 290953Z AUTO 14004KT 9SM CLR 22/21 A2994 RMK AO2 SLP119
         T02170206
         
09Z KHRO 290853Z AUTO 25003KT 10SM CLR 22/21 A2996 RMK AO2 SLP126
         T02170211 58015
         
08Z KHRO 290753Z AUTO 25003KT 10SM CLR 22/21 A2998 RMK AO2 SLP133
         T02220211
         
07Z KHRO 290653Z AUTO 27003KT 10SM FEW033 FEW049 FEW060 23/22 A2999
         RMK AO2 SLP137 T02280217
         
06Z KHRO 290553Z AUTO 33003KT 10SM FEW045 SCT055 BKN100 23/22 A3000
         RMK AO2 SLP141 60000 T02330217 10289 20228 403390211
         50013
         
05Z KHRO 290453Z AUTO 00000KT 10SM BKN050 23/22 A3001 RMK AO2 SLP144
         T02330217
         
***** Today's Observations (Above) *****


Back to Main Page
http://www.srh.noaa.gov/lzk/qfcst.php

USA.gov is the U.S. government's official web portal to all federal, state and local government web resources and services.